Ludlow, Iowa
Current Conditions -  °F | °C
As of 8:35 AM on Friday 31 Oct 2014 (Local Time) from KDEH Reporting Station
Few Clouds Few Clouds  
Wind Chill: 16°   Ceiling: Unl
Heat Index: 27°   Visibility: 10mi
Dew Point: 19°   Wind: 12mph
Humidity: 74%   Direction: 340°NNW
Pressure: 30.39"   Gusts: 20mph
Location:  43.256°N, 91.4868°W
Report Text: KDEH 311335Z AUTO 34010G17KT 10SM FEW032 M03/M07 A3039 RMK AO2
Loading
Personal Weather Stations






























Interactive Weather Map
Tropical Storm Tracking
New forecast layout! Learn more

10-Day Weather Forecast

Advertisements
Track Severe Weather on mobile